Brainard, NY (12024)

1:18 PM EST on January 25, 2015 (GMT -0500)
Chatham NY Weather Observation Club | Change Station
CLOSE
Current Station
Personal Weather Station
Location: Chatham, NY
Elevation: 480 ft
Nearby Weather Stations
Active Advisory: Winter Storm Watch

Elev 480 ft 42.36 °N, 73.60 °W | Updated 8 seconds ago

Clear
Clear
29.6 °F
Feels Like 19 °F
N
12.7
Wind Variable Wind from NNW
Gusts 12.7 mph

Today
High -- | Low -- °F
--% Chance of Precip.
Yesterday
High -- | Low -- °F
Precip. -- in
7:14 AM 4:59 PM
Waxing Crescent, 34% visible
Pressure 29.72 in
Visibility 10.0 miles
Clouds Clear
Windchill 19 °F
Dew Point 8 °F
Humidity 40%
Rainfall 0.00 in
Snow Depth Not available.
UV 3 out of 12
Pollen .10 out of 12
Air Quality Not available.
Flu Activity Not available.
METAR KPSF 251754Z AUTO 29019G24KT 10SM CLR M04/M14 A2968 RMK AO2 PK WND 31029/1724 SLP064 60001 T10391139 11006 21050 51020

More Conditions Fewer Conditions

Pressure 29.72 in
Visibility 10.0 miles
Clouds Clear
Windchill 19 °F
Dew Point 8 °F
Humidity 40%
Rainfall 0.00 in
Snow Depth Not available.
UV 3 out of 12
Pollen .10 out of 12
Air Quality Not available.
Flu Activity Not available.
METAR KPSF 251754Z AUTO 29019G24KT 10SM CLR M04/M14 A2968 RMK AO2 PK WND 31029/1724 SLP064 60001 T10391139 11006 21050 51020

More Conditions Fewer Conditions

10-Day Weather Forecast

Almanac

Astronomy

Jan. 25, 2015 Rise Set
Actual Time
Civil Twilight
Nautical Twilight
Astronomical Twilight
Moon
Length of Visible Light
Length of Day
Tomorrow will be .
, % of the Moon is Illuminated

Today's Extremes

State Highs State Lows

Community

WunderPhotos

Upload Photos

1,790,011 photos uploaded!

WunderBlogs® & News

Nearby

Air Quality

  Air Quality AQ Index Pollutant
Not available.

Snow Depth

Station Depth Elevation

Earthquake Activity

City Distance Mag. Time & Date
Minimum magnitude displayed is 2.5.

Coastal Water Temperatures

Place Temperature

Nearby Weather Stations